Salem, OR (97303)

3:56 AM PDT on April 28, 2017 (GMT -0700)
Cherry | | Change Station

Elev 135 ft 44.98 °N, 123.02 °W | Updated 16 seconds ago

Mostly Cloudy
Mostly Cloudy
38.3 °F
Feels Like 38 °F
N
0.0
Wind Variable Wind from NNE

Today
High -- | Low -- °F
--% Chance of Precip.
Yesterday
High -- | Low -- °F
Precip. -- in
Pressure 30.29 in
Visibility 10.0 miles
Clouds Scattered Clouds 5000 ft
Windchill 38 °F
Dew Point 38 °F
Humidity 99%
Rainfall 0.00 in
Snow Depth Not available.
6:05 AM 8:14 PM
Waxing Crescent, 6% visible
METAR KSLE 280956Z AUTO 28003KT 10SM SCT050 04/02 A3029 RMK AO2 SLP257 T00440022
Pressure 30.29 in
Visibility 10.0 miles
Clouds Scattered Clouds 5000 ft
Windchill 38 °F
Dew Point 38 °F
Humidity 99%
Rainfall 0.00 in
Snow Depth Not available.
6:05 AM 8:14 PM
Waxing Crescent, 6% visible
METAR KSLE 280956Z AUTO 28003KT 10SM SCT050 04/02 A3029 RMK AO2 SLP257 T00440022

Get Severe Weather Alerts

Thanks for signing up!

Be on the lookout for a verification email in your inbox.

You'll start receiving the daily forecast at 8 AM.

×

10-Day Weather Forecast

Almanac

Astronomy

Apr. 28, 2017 Rise Set
Actual Time
Civil Twilight
Nautical Twilight
Astronomical Twilight
Moon
Length of Visible Light
Length of Day
Tomorrow will be .
, % of the Moon is Illuminated

Today's Extremes

State Highs State Lows

Community

WunderPhotos

WunderBlog® & News

Nearby

Air Quality

  Air Quality AQ Index Pollutant
Not available.

Snow Depth

Station Depth Elevation

Earthquake Activity

City Distance Mag. Time & Date
Minimum magnitude displayed is 2.5.

Coastal Water Temperatures

Place Temperature

Stations

Nearby Weather Stations

Station Location Temp. Windchill Dew Point Humidity Wind Precip. Elev Updated Type
                   

Watches & Warnings

There are currently no watches in effect.